createdAt,value
2022-09-20T00:01:43.926Z,98034.47
2022-09-20T00:04:12.345Z,98034.38
2022-09-20T00:06:40.772Z,98034.25
2022-09-20T00:09:09.174Z,98037.66
2022-09-20T00:11:39.641Z,98039.13
2022-09-20T00:14:10.120Z,98045.72
2022-09-20T00:16:41.373Z,98039.19
2022-09-20T00:19:10.064Z,98036.16
2022-09-20T00:21:38.520Z,98032.53
2022-09-20T00:24:07.416Z,98030.84
2022-09-20T00:26:35.747Z,98031.44
2022-09-20T00:29:04.105Z,98033.53
2022-09-20T00:31:32.533Z,98036.91
2022-09-20T00:34:16.056Z,98036.13
2022-09-20T00:36:44.492Z,98035.66
2022-09-20T00:39:13.626Z,98039.81
2022-09-20T00:41:42.967Z,98036.19
2022-09-20T00:44:42.822Z,98044.66
2022-09-20T00:47:14.658Z,98036.31
2022-09-20T00:49:44.361Z,98035.34
2022-09-20T00:52:12.749Z,98033.16
2022-09-20T00:54:41.050Z,98036.03
2022-09-20T00:57:11.357Z,98036.78
2022-09-20T00:59:41.049Z,98039.81
2022-09-20T01:02:11.397Z,98035.84
2022-09-20T01:04:40.263Z,98037.97
2022-09-20T01:07:10.722Z,98037.66
2022-09-20T01:09:40.924Z,98032.53
2022-09-20T01:12:12.919Z,98040.97
2022-09-20T01:14:41.342Z,98035.78
2022-09-20T01:17:09.690Z,98036.47
2022-09-20T01:19:41.128Z,98042.03
2022-09-20T01:22:24.333Z,98040.00
2022-09-20T01:24:56.305Z,98042.59
2022-09-20T01:27:25.267Z,98046.34
2022-09-20T01:30:02.603Z,98047.38
2022-09-20T01:32:35.562Z,98041.00
2022-09-20T01:35:03.938Z,98049.13
2022-09-20T01:37:35.265Z,98043.78
2022-09-20T01:40:05.512Z,98046.13
2022-09-20T01:42:35.047Z,98043.00
2022-09-20T01:45:09.306Z,98047.66
2022-09-20T01:47:40.429Z,98047.00
2022-09-20T01:50:29.773Z,98047.50
2022-09-20T01:53:15.665Z,98043.50
2022-09-20T01:55:53.125Z,98046.31
2022-09-20T01:58:41.175Z,98048.28
2022-09-20T02:01:27.152Z,98045.38
2022-09-20T02:04:07.368Z,98052.84
2022-09-20T02:06:49.022Z,98046.41
2022-09-20T02:09:28.296Z,98046.63
2022-09-20T02:12:08.358Z,98044.06
2022-09-20T02:14:40.436Z,98053.72
2022-09-20T02:17:14.877Z,98046.91
2022-09-20T02:19:53.293Z,98047.75
2022-09-20T02:22:29.870Z,98047.31
2022-09-20T02:25:03.726Z,98042.53
2022-09-20T02:27:37.552Z,98045.75
2022-09-20T02:30:14.362Z,98050.13
2022-09-20T02:32:55.243Z,98042.22
2022-09-20T02:35:31.796Z,98042.22
2022-09-20T02:38:03.374Z,98048.44
2022-09-20T02:40:48.424Z,98048.06
2022-09-20T02:43:23.014Z,98043.41
2022-09-20T02:45:54.338Z,98045.22
2022-09-20T02:48:30.850Z,98040.97
2022-09-20T02:51:02.542Z,98043.47
2022-09-20T02:53:37.720Z,98051.97
2022-09-20T02:56:10.132Z,98048.44
2022-09-20T02:58:46.787Z,98039.47
2022-09-20T03:01:21.675Z,98050.06
2022-09-20T03:04:05.113Z,98048.34
2022-09-20T03:06:39.139Z,98038.31
2022-09-20T03:09:11.256Z,98043.09
2022-09-20T03:11:44.354Z,98044.59
2022-09-20T03:14:16.133Z,98033.91
2022-09-20T03:16:52.468Z,98032.91
2022-09-20T03:19:37.258Z,98044.34
2022-09-20T03:22:18.410Z,98037.94
2022-09-20T03:24:54.457Z,98039.63
2022-09-20T03:27:26.153Z,98050.44
2022-09-20T03:30:02.769Z,98041.31
2022-09-20T03:32:40.064Z,98042.47
2022-09-20T03:35:21.972Z,98048.47
2022-09-20T03:37:58.949Z,98043.38
2022-09-20T03:40:48.569Z,98043.03
2022-09-20T03:43:28.721Z,98045.03
2022-09-20T03:46:04.413Z,98040.88
2022-09-20T03:48:48.215Z,98030.41
2022-09-20T03:51:23.887Z,98036.41
2022-09-20T03:54:03.445Z,98037.56
2022-09-20T03:56:41.063Z,98043.59
2022-09-20T03:59:19.679Z,98042.47
2022-09-20T04:02:02.819Z,98050.47
2022-09-20T04:04:32.689Z,98046.38
2022-09-20T04:07:10.652Z,98048.47
2022-09-20T04:09:53.008Z,98034.59
2022-09-20T04:12:27.310Z,98046.06
2022-09-20T04:14:59.297Z,98040.13
2022-09-20T04:17:32.797Z,98043.63
2022-09-20T04:20:04.112Z,98045.09
2022-09-20T04:22:33.969Z,98045.41
2022-09-20T04:25:05.485Z,98043.88
2022-09-20T04:27:35.714Z,98050.31
2022-09-20T04:30:06.688Z,98047.94
2022-09-20T04:32:37.816Z,98051.59
2022-09-20T04:35:21.141Z,98057.34
2022-09-20T04:37:51.005Z,98051.59
2022-09-20T04:40:27.055Z,98051.19
2022-09-20T04:43:10.988Z,98055.69
2022-09-20T04:45:55.393Z,98058.50
2022-09-20T04:48:40.176Z,98062.78
2022-09-20T04:51:20.074Z,98061.97
2022-09-20T04:53:58.537Z,98066.78
2022-09-20T04:56:30.863Z,98064.28
2022-09-20T04:59:10.191Z,98068.00
2022-09-20T05:01:55.771Z,98061.38
2022-09-20T05:04:44.587Z,98072.66
2022-09-20T05:07:27.043Z,98076.88
2022-09-20T05:10:15.200Z,98079.59
2022-09-20T05:12:56.725Z,98066.44
2022-09-20T05:15:36.484Z,98074.75
2022-09-20T05:18:17.208Z,98075.72
2022-09-20T05:20:49.822Z,98072.38
2022-09-20T05:23:30.571Z,98081.06
2022-09-20T05:26:09.924Z,98078.47
2022-09-20T05:28:48.523Z,98075.13
2022-09-20T05:31:19.937Z,98071.00
2022-09-20T05:33:51.165Z,98068.91
2022-09-20T05:36:21.968Z,98073.56
2022-09-20T05:38:51.868Z,98072.44
2022-09-20T05:41:25.355Z,98072.97
2022-09-20T05:43:56.458Z,98068.84
2022-09-20T05:46:34.630Z,98065.59
2022-09-20T05:49:14.622Z,98071.63
2022-09-20T05:51:53.780Z,98071.47
2022-09-20T05:54:37.001Z,98076.47
2022-09-20T05:57:16.536Z,98072.38
2022-09-20T05:59:53.369Z,98081.16
2022-09-20T06:02:29.789Z,98076.34
2022-09-20T06:05:01.906Z,98083.38
2022-09-20T06:07:38.253Z,98085.72
2022-09-20T06:10:28.325Z,98092.47
2022-09-20T06:13:01.991Z,98090.47
2022-09-20T06:15:34.505Z,98094.16
2022-09-20T06:18:07.605Z,98100.31
2022-09-20T06:20:38.772Z,98097.19
2022-09-20T06:23:07.131Z,98098.41
2022-09-20T06:25:43.130Z,98101.13
2022-09-20T06:28:15.653Z,98103.31
2022-09-20T06:30:45.920Z,98104.38
2022-09-20T06:33:17.674Z,98107.84
2022-09-20T06:35:49.435Z,98107.69
2022-09-20T06:38:42.069Z,98106.72
2022-09-20T06:41:24.644Z,98111.69
2022-09-20T06:44:00.286Z,98106.22
2022-09-20T06:46:30.165Z,98110.25
2022-09-20T06:48:58.658Z,98107.44
2022-09-20T06:51:31.492Z,98108.19
2022-09-20T06:54:05.284Z,98111.34
2022-09-20T06:56:36.948Z,98112.84
2022-09-20T06:59:10.602Z,98116.50
2022-09-20T07:01:39.063Z,98121.84
2022-09-20T07:04:07.616Z,98115.03
2022-09-20T07:06:36.023Z,98111.13
2022-09-20T07:09:07.661Z,98117.84
2022-09-20T07:11:36.126Z,98122.06
2022-09-20T07:16:53.071Z,98119.78
2022-09-20T07:19:22.959Z,98119.28
2022-09-20T07:21:51.873Z,98124.16
2022-09-20T07:24:22.881Z,98126.59
2022-09-20T07:26:56.584Z,98133.69
2022-09-20T07:29:24.896Z,98134.31
2022-09-20T07:31:55.268Z,98135.75
2022-09-20T07:34:24.285Z,98134.88
2022-09-20T07:36:52.743Z,98131.72
2022-09-20T07:39:21.186Z,98130.38
2022-09-20T07:41:51.396Z,98128.69
2022-09-20T07:44:24.615Z,98133.69
2022-09-20T07:46:56.000Z,98136.38
2022-09-20T07:49:24.384Z,98135.13
2022-09-20T07:51:52.824Z,98138.94
2022-09-20T07:54:22.155Z,98132.59
2022-09-20T07:56:50.659Z,98141.59
2022-09-20T07:59:19.576Z,98140.00
2022-09-20T08:01:47.940Z,98154.28
2022-09-20T08:04:17.761Z,98156.50
2022-09-20T08:09:33.089Z,98155.53
2022-09-20T08:14:05.104Z,98159.78
2022-09-20T08:14:50.270Z,98156.00
2022-09-20T08:17:19.605Z,98162.47
2022-09-20T08:19:49.411Z,98165.00
2022-09-20T08:22:20.467Z,98167.47
2022-09-20T08:24:48.961Z,98163.81
2022-09-20T08:27:17.510Z,98165.13
2022-09-20T08:29:46.068Z,98164.78
2022-09-20T08:32:16.235Z,98162.63
2022-09-20T08:34:49.335Z,98166.41
2022-09-20T08:37:19.511Z,98168.66
2022-09-20T08:39:57.811Z,98164.63
2022-09-20T08:42:33.944Z,98157.38
2022-09-20T08:45:05.220Z,98163.69
2022-09-20T08:47:35.963Z,98167.34
2022-09-20T08:50:09.513Z,98164.09
2022-09-20T08:52:40.868Z,98166.28
2022-09-20T08:55:17.177Z,98153.41
2022-09-20T08:57:48.116Z,98156.69
2022-09-20T09:00:19.107Z,98156.38
2022-09-20T09:02:48.505Z,98159.94
2022-09-20T09:05:35.127Z,98161.75
2022-09-20T09:08:08.108Z,98154.03
2022-09-20T09:10:45.636Z,98156.13
2022-09-20T09:13:22.979Z,98156.84
2022-09-20T09:15:55.012Z,98156.06
2022-09-20T09:18:31.750Z,98155.16
2022-09-20T09:21:04.412Z,98148.47
2022-09-20T09:23:41.512Z,98149.81
2022-09-20T09:26:34.942Z,98148.53
2022-09-20T09:29:11.341Z,98143.47
2022-09-20T09:31:40.040Z,98157.03
2022-09-20T09:34:24.038Z,98148.53
2022-09-20T09:36:52.441Z,98142.41
2022-09-20T09:39:28.806Z,98153.41
2022-09-20T09:41:57.563Z,98148.56
2022-09-20T09:44:28.983Z,98147.72
2022-09-20T09:46:59.228Z,98147.94
2022-09-20T09:49:28.032Z,98144.63
2022-09-20T09:52:04.530Z,98144.97
2022-09-20T09:54:36.603Z,98157.63
2022-09-20T09:57:20.269Z,98155.31
2022-09-20T09:59:56.409Z,98150.03
2022-09-20T10:02:34.306Z,98153.06
2022-09-20T10:05:04.972Z,98147.72
2022-09-20T10:07:36.056Z,98152.81
2022-09-20T10:10:09.462Z,98146.66
2022-09-20T10:12:45.907Z,98150.88
2022-09-20T10:15:22.557Z,98143.81
2022-09-20T10:17:53.771Z,98149.13
2022-09-20T10:20:31.521Z,98152.97
2022-09-20T10:23:39.254Z,98149.59
2022-09-20T10:25:58.165Z,98150.88
2022-09-20T10:28:35.428Z,98155.53
2022-09-20T10:31:07.850Z,98156.63
2022-09-20T10:33:39.748Z,98153.81
2022-09-20T10:36:14.647Z,98156.69
2022-09-20T10:38:45.988Z,98157.53
2022-09-20T10:41:37.158Z,98156.66
2022-09-20T10:44:10.835Z,98160.72
2022-09-20T10:46:46.984Z,98155.53
2022-09-20T10:49:39.380Z,98154.56
2022-09-20T10:52:31.882Z,98152.72
2022-09-20T10:55:12.159Z,98158.81
2022-09-20T10:57:56.011Z,98152.88
2022-09-20T11:00:24.865Z,98150.09
2022-09-20T11:03:03.783Z,98157.19
2022-09-20T11:05:36.027Z,98161.16
2022-09-20T11:08:08.939Z,98159.16
2022-09-20T11:10:38.426Z,98160.09
2022-09-20T11:13:12.259Z,98164.56
2022-09-20T11:15:43.672Z,98165.28
2022-09-20T11:18:14.422Z,98166.13
2022-09-20T11:20:45.301Z,98162.75
2022-09-20T11:23:16.239Z,98164.06
2022-09-20T11:25:45.828Z,98162.09
2022-09-20T11:28:20.701Z,98171.00
2022-09-20T11:30:59.661Z,98166.66
2022-09-20T11:33:31.809Z,98171.19
2022-09-20T11:36:01.126Z,98167.75
2022-09-20T11:38:31.684Z,98173.34
2022-09-20T11:41:02.560Z,98176.06
2022-09-20T11:43:32.328Z,98183.63
2022-09-20T11:46:02.293Z,98177.69
2022-09-20T11:48:36.423Z,98178.19
2022-09-20T11:51:21.777Z,98171.94
2022-09-20T11:53:56.975Z,98175.94
2022-09-20T11:56:26.291Z,98167.28
2022-09-20T11:59:18.584Z,98167.53
2022-09-20T12:01:47.114Z,98153.81
2022-09-20T12:04:39.021Z,98156.22
2022-09-20T12:07:12.415Z,98155.78
2022-09-20T12:09:44.898Z,98161.84
2022-09-20T12:12:16.938Z,98164.44
2022-09-20T12:14:54.070Z,98155.38
2022-09-20T12:17:52.617Z,98161.78
2022-09-20T12:21:08.220Z,98156.63
2022-09-20T12:23:46.091Z,98149.25
2022-09-20T12:26:15.967Z,98156.78
2022-09-20T12:28:44.988Z,98148.53
2022-09-20T12:31:48.128Z,98159.31
2022-09-20T12:34:37.117Z,98150.25
2022-09-20T12:37:20.617Z,98146.56
2022-09-20T12:39:52.746Z,98151.13
2022-09-20T12:42:33.358Z,98142.63
2022-09-20T12:45:04.626Z,98137.03
2022-09-20T12:47:35.311Z,98135.88
2022-09-20T12:50:20.181Z,98128.28
2022-09-20T12:52:54.084Z,98130.28
2022-09-20T12:55:33.958Z,98135.72
2022-09-20T12:58:07.155Z,98134.63
2022-09-20T13:00:39.154Z,98132.28
2022-09-20T13:03:28.831Z,98121.19
2022-09-20T13:06:25.674Z,98124.56
2022-09-20T13:08:58.275Z,98121.88
2022-09-20T13:11:29.092Z,98122.44
2022-09-20T13:13:58.513Z,98123.75
2022-09-20T13:16:30.090Z,98123.16
2022-09-20T13:19:07.987Z,98123.44
2022-09-20T13:21:38.293Z,98125.03
2022-09-20T13:24:08.175Z,98118.78
2022-09-20T13:26:44.295Z,98123.91
2022-09-20T13:29:23.778Z,98120.34
2022-09-20T13:31:52.380Z,98123.81
2022-09-20T13:34:25.579Z,98113.88
2022-09-20T13:37:03.636Z,98119.00
2022-09-20T13:40:09.524Z,98132.00
2022-09-20T13:42:47.788Z,98119.22
2022-09-20T13:45:33.975Z,98114.09
2022-09-20T13:48:02.738Z,98118.13
2022-09-20T13:50:33.963Z,98125.00
2022-09-20T13:53:03.261Z,98111.91
2022-09-20T13:55:33.409Z,98127.81
2022-09-20T14:00:52.858Z,98129.38
2022-09-20T14:03:23.068Z,98121.56
2022-09-20T14:05:53.932Z,98117.16
2022-09-20T14:08:24.746Z,98121.00
2022-09-20T14:11:04.576Z,98128.81
2022-09-20T14:13:36.938Z,98124.38
2022-09-20T14:16:05.794Z,98130.13
2022-09-20T14:18:34.842Z,98123.88
2022-09-20T14:21:05.019Z,98125.00
2022-09-20T14:23:33.692Z,98127.69
2022-09-20T14:26:07.670Z,98122.72
2022-09-20T14:28:36.063Z,98114.72
2022-09-20T14:31:08.156Z,98124.81
2022-09-20T14:33:39.415Z,98125.16
2022-09-20T14:36:12.418Z,98115.81
2022-09-20T14:38:41.531Z,98110.75
2022-09-20T14:41:10.069Z,98114.44
2022-09-20T14:43:38.706Z,98109.03
2022-09-20T14:46:15.454Z,98114.34
2022-09-20T14:48:45.667Z,98110.78
2022-09-20T14:51:25.570Z,98111.97
2022-09-20T14:53:54.489Z,98104.47
2022-09-20T14:56:32.439Z,98109.06
2022-09-20T14:59:05.860Z,98122.81
2022-09-20T15:01:38.345Z,98124.84
2022-09-20T15:04:09.711Z,98120.16
2022-09-20T15:06:40.732Z,98122.00
2022-09-20T15:09:13.541Z,98122.03
2022-09-20T15:11:42.231Z,98121.31
2022-09-20T15:14:10.604Z,98124.59
2022-09-20T15:16:38.981Z,98129.69
2022-09-20T15:19:08.733Z,98128.41
2022-09-20T15:21:40.154Z,98123.28
2022-09-20T15:24:10.793Z,98130.81
2022-09-20T15:26:39.204Z,98141.41
2022-09-20T15:29:09.262Z,98138.25
2022-09-20T15:31:56.100Z,98143.66
2022-09-20T15:34:24.876Z,98139.72
2022-09-20T15:36:54.374Z,98140.22
2022-09-20T15:39:24.890Z,98142.28
2022-09-20T15:41:54.187Z,98140.22
2022-09-20T15:44:22.524Z,98142.25
2022-09-20T15:46:53.406Z,98139.69
2022-09-20T15:49:25.338Z,98136.56
2022-09-20T15:51:56.534Z,98140.06
2022-09-20T15:54:31.724Z,98141.50
2022-09-20T15:57:06.713Z,98143.03
2022-09-20T15:59:39.134Z,98147.84
2022-09-20T16:02:09.217Z,98140.75
2022-09-20T16:04:38.005Z,98150.38
2022-09-20T16:07:15.783Z,98149.78
2022-09-20T16:09:47.895Z,98151.78
2022-09-20T16:12:22.432Z,98145.53
2022-09-20T16:14:51.064Z,98141.34
2022-09-20T16:17:48.386Z,98148.56
2022-09-20T16:20:16.844Z,98152.22
2022-09-20T16:22:47.203Z,98151.34
2022-09-20T16:25:20.758Z,98154.09
2022-09-20T16:27:49.137Z,98152.22
2022-09-20T16:30:17.854Z,98153.34
2022-09-20T16:32:46.458Z,98157.13
2022-09-20T16:35:16.980Z,98157.03
2022-09-20T16:37:45.724Z,98159.66
2022-09-20T16:40:15.361Z,98159.97
2022-09-20T16:42:52.109Z,98157.75
2022-09-20T16:45:21.644Z,98163.53
2022-09-20T16:47:51.603Z,98164.81
2022-09-20T16:50:21.097Z,98169.16
2022-09-20T16:52:49.808Z,98165.56
2022-09-20T16:55:19.837Z,98163.16
2022-09-20T16:57:52.103Z,98172.00
2022-09-20T17:00:22.167Z,98179.97
2022-09-20T17:02:51.425Z,98183.81
2022-09-20T17:05:19.777Z,98177.03
2022-09-20T17:08:06.380Z,98183.59
2022-09-20T17:10:35.177Z,98181.84
2022-09-20T17:13:07.639Z,98187.09
2022-09-20T17:15:37.896Z,98189.78
2022-09-20T17:18:10.296Z,98196.53
2022-09-20T17:20:41.408Z,98201.22
2022-09-20T17:23:13.319Z,98206.66
2022-09-20T17:25:44.171Z,98196.16
2022-09-20T17:31:02.338Z,98203.88
2022-09-20T17:33:34.914Z,98210.13
2022-09-20T17:36:06.996Z,98211.56
2022-09-20T17:38:35.852Z,98213.78
2022-09-20T17:41:05.706Z,98207.44
2022-09-20T17:43:36.079Z,98223.44
2022-09-20T17:46:07.461Z,98215.28
2022-09-20T17:48:36.901Z,98228.59
2022-09-20T17:51:08.176Z,98225.53
2022-09-20T17:53:43.027Z,98226.63
2022-09-20T17:56:11.943Z,98231.38
2022-09-20T17:58:41.809Z,98227.38
2022-09-20T18:01:12.835Z,98229.31
2022-09-20T18:03:42.870Z,98233.72
2022-09-20T18:06:34.675Z,98237.50
2022-09-20T18:09:03.880Z,98234.47
2022-09-20T18:11:34.500Z,98245.94
2022-09-20T18:14:06.157Z,98246.28
2022-09-20T18:16:37.242Z,98249.59
2022-09-20T18:19:06.429Z,98259.69
2022-09-20T18:21:37.082Z,98256.53
2022-09-20T18:24:06.816Z,98257.66
2022-09-20T18:26:35.866Z,98265.31
2022-09-20T18:29:06.761Z,98259.09
2022-09-20T18:31:36.322Z,98259.94
2022-09-20T18:34:07.576Z,98268.38
2022-09-20T18:36:51.235Z,98267.75
2022-09-20T18:39:20.791Z,98278.13
2022-09-20T18:41:50.643Z,98282.75
2022-09-20T18:44:23.561Z,98274.84
2022-09-20T18:46:55.249Z,98279.97
2022-09-20T18:49:23.810Z,98285.78
2022-09-20T18:51:53.978Z,98284.34
2022-09-20T18:54:22.301Z,98289.72
2022-09-20T18:56:51.940Z,98281.06
2022-09-20T18:59:22.884Z,98285.53
2022-09-20T19:02:20.869Z,98287.09
2022-09-20T19:04:56.496Z,98282.81
2022-09-20T19:07:28.535Z,98280.34
2022-09-20T19:09:58.442Z,98276.69
2022-09-20T19:12:48.476Z,98287.53
2022-09-20T19:15:40.344Z,98287.91
2022-09-20T19:18:20.431Z,98298.50
2022-09-20T19:20:57.451Z,98292.19
2022-09-20T19:23:36.013Z,98301.81
2022-09-20T19:26:09.978Z,98310.34
2022-09-20T19:28:38.839Z,98315.47
2022-09-20T19:31:12.195Z,98310.97
2022-09-20T19:33:40.813Z,98306.84
2022-09-20T19:36:11.587Z,98320.97
2022-09-20T19:38:46.705Z,98312.06
2022-09-20T19:41:27.589Z,98317.03
2022-09-20T19:44:07.099Z,98321.41
2022-09-20T19:46:41.729Z,98323.16
2022-09-20T19:49:14.556Z,98329.22
2022-09-20T19:51:44.298Z,98323.34
2022-09-20T19:54:13.606Z,98321.56
2022-09-20T19:56:47.658Z,98326.09
2022-09-20T19:59:17.685Z,98325.88
2022-09-20T20:01:47.745Z,98324.06
2022-09-20T20:04:16.957Z,98340.09
2022-09-20T20:06:50.271Z,98338.41
2022-09-20T20:09:20.578Z,98342.00
2022-09-20T20:11:52.702Z,98345.16
2022-09-20T20:14:22.845Z,98342.81
2022-09-20T20:17:01.251Z,98342.97
2022-09-20T20:19:43.049Z,98350.47
2022-09-20T20:22:16.921Z,98350.56
2022-09-20T20:24:47.559Z,98352.50
2022-09-20T20:27:15.880Z,98353.69
2022-09-20T20:29:44.392Z,98355.19
2022-09-20T20:32:15.350Z,98357.34
2022-09-20T20:34:43.675Z,98357.34
2022-09-20T20:37:12.654Z,98358.44
2022-09-20T20:39:41.028Z,98369.41
2022-09-20T20:42:13.051Z,98368.72
2022-09-20T20:44:42.823Z,98367.50
2022-09-20T20:47:11.507Z,98366.44
2022-09-20T20:49:41.204Z,98368.94
2022-09-20T20:52:09.946Z,98373.25
2022-09-20T20:54:38.245Z,98375.00
2022-09-20T20:57:09.446Z,98376.63
2022-09-20T20:59:37.912Z,98374.31
2022-09-20T21:02:25.338Z,98374.78
2022-09-20T21:04:55.129Z,98378.66
2022-09-20T21:07:23.589Z,98377.13
2022-09-20T21:09:51.948Z,98379.25
2022-09-20T21:12:22.151Z,98375.16
2022-09-20T21:14:50.536Z,98374.53
2022-09-20T21:17:18.906Z,98384.09
2022-09-20T21:19:47.244Z,98387.22
2022-09-20T21:22:17.500Z,98382.63
2022-09-20T21:24:45.962Z,98391.44
2022-09-20T21:27:14.958Z,98383.91
2022-09-20T21:29:43.873Z,98390.97
2022-09-20T21:32:12.333Z,98390.69
2022-09-20T21:34:40.775Z,98391.94
2022-09-20T21:37:09.790Z,98393.75
2022-09-20T21:39:58.208Z,98397.84
2022-09-20T21:42:28.518Z,98395.16
2022-09-20T21:44:57.070Z,98396.38
2022-09-20T21:47:25.471Z,98396.91
2022-09-20T21:49:53.899Z,98396.59
2022-09-20T21:52:22.208Z,98400.13
2022-09-20T21:54:52.026Z,98405.06
2022-09-20T21:57:20.404Z,98401.22
2022-09-20T21:59:49.122Z,98403.34
2022-09-20T22:02:18.495Z,98401.22
2022-09-20T22:04:49.976Z,98409.31
2022-09-20T22:07:18.375Z,98411.03
2022-09-20T22:09:47.210Z,98410.19
2022-09-20T22:12:16.907Z,98408.25
2022-09-20T22:14:45.353Z,98407.81
2022-09-20T22:17:13.677Z,98402.81
2022-09-20T22:19:42.551Z,98414.56
2022-09-20T22:22:11.080Z,98415.75
2022-09-20T22:24:39.475Z,98409.97
2022-09-20T22:27:10.462Z,98414.78
2022-09-20T22:29:40.213Z,98418.53
2022-09-20T22:32:08.535Z,98419.28
2022-09-20T22:34:36.877Z,98423.16
2022-09-20T22:37:05.218Z,98421.66
2022-09-20T22:39:33.562Z,98418.44
2022-09-20T22:42:02.283Z,98426.38
2022-09-20T22:44:30.605Z,98421.44
2022-09-20T22:47:00.359Z,98419.75
2022-09-20T22:49:28.969Z,98425.63
2022-09-20T22:51:57.696Z,98422.78
2022-09-20T22:54:26.530Z,98424.22
2022-09-20T22:56:54.883Z,98427.53
2022-09-20T22:59:23.204Z,98419.81
2022-09-20T23:01:51.539Z,98423.28
2022-09-20T23:04:24.698Z,98424.56
2022-09-20T23:06:55.249Z,98418.88
2022-09-20T23:09:24.859Z,98420.00
2022-09-20T23:11:53.259Z,98424.16
2022-09-20T23:14:22.106Z,98430.25
2022-09-20T23:16:50.708Z,98424.44
2022-09-20T23:19:20.464Z,98423.38
2022-09-20T23:21:48.899Z,98425.63
2022-09-20T23:24:17.396Z,98420.53
2022-09-20T23:26:45.862Z,98419.97
2022-09-20T23:29:15.182Z,98420.53
2022-09-20T23:31:46.079Z,98425.72
2022-09-20T23:34:14.959Z,98422.09
2022-09-20T23:36:44.891Z,98432.03
2022-09-20T23:39:13.649Z,98429.78
2022-09-20T23:41:45.799Z,98427.41
2022-09-20T23:44:16.877Z,98424.38
2022-09-20T23:46:45.565Z,98425.34
2022-09-20T23:49:13.887Z,98424.47
2022-09-20T23:51:42.206Z,98422.44
2022-09-20T23:54:11.919Z,98421.88
2022-09-20T23:56:40.420Z,98422.66
2022-09-20T23:59:09.035Z,98416.63
